createdAt,value
2018-12-15T00:00:58.795Z,0.00
2018-12-15T00:01:58.775Z,0.00
2018-12-15T00:02:58.765Z,0.00
2018-12-15T00:03:58.755Z,0.00
2018-12-15T00:04:58.738Z,0.00
2018-12-15T00:05:58.723Z,0.00
2018-12-15T00:06:58.710Z,0.00
2018-12-15T00:07:58.692Z,0.00
2018-12-15T00:08:58.678Z,0.00
2018-12-15T00:09:58.662Z,0.00
2018-12-15T00:10:58.648Z,0.00
2018-12-15T00:11:58.639Z,0.00
2018-12-15T00:12:58.679Z,0.00
2018-12-15T00:13:58.609Z,0.00
2018-12-15T00:14:58.596Z,0.00
2018-12-15T00:15:58.578Z,0.00
2018-12-15T00:16:58.563Z,0.00
2018-12-15T00:17:58.552Z,0.00
2018-12-15T00:18:58.538Z,0.00
2018-12-15T00:19:58.519Z,0.00
2018-12-15T00:20:58.506Z,0.00
2018-12-15T00:21:58.494Z,0.00
2018-12-15T00:22:58.480Z,0.00
2018-12-15T00:23:58.468Z,0.00
2018-12-15T00:24:58.454Z,0.00
2018-12-15T00:25:58.439Z,0.00
2018-12-15T00:26:58.426Z,0.00
2018-12-15T00:27:58.407Z,0.00
2018-12-15T00:28:58.392Z,0.00
2018-12-15T00:29:58.377Z,0.00
2018-12-15T00:30:58.364Z,0.00
2018-12-15T00:31:58.354Z,0.00
2018-12-15T00:32:58.339Z,0.00
2018-12-15T00:33:58.320Z,0.00
2018-12-15T00:34:58.308Z,0.00
2018-12-15T00:35:58.297Z,0.00
2018-12-15T00:36:58.282Z,0.00
2018-12-15T00:37:58.272Z,0.00
2018-12-15T00:38:58.257Z,0.00
2018-12-15T00:39:58.237Z,0.00
2018-12-15T00:40:58.221Z,0.00
2018-12-15T00:41:58.208Z,0.00
2018-12-15T00:42:58.194Z,0.00
2018-12-15T00:43:58.186Z,0.00
2018-12-15T00:44:58.173Z,0.00
2018-12-15T00:45:58.157Z,0.00
2018-12-15T00:46:58.142Z,0.00
2018-12-15T00:47:58.124Z,0.00
2018-12-15T00:48:58.115Z,0.00
2018-12-15T00:49:58.104Z,0.00
2018-12-15T00:50:58.085Z,0.00
2018-12-15T00:51:58.070Z,0.00
2018-12-15T00:52:58.053Z,0.00
2018-12-15T00:53:58.039Z,0.00
2018-12-15T00:54:58.025Z,0.00
2018-12-15T00:55:58.015Z,0.00
2018-12-15T00:56:58.001Z,0.00
2018-12-15T00:57:57.987Z,0.00
2018-12-15T00:58:57.975Z,0.00
2018-12-15T00:59:57.956Z,0.00
2018-12-15T01:00:57.939Z,0.00
2018-12-15T01:01:57.926Z,0.00
2018-12-15T01:02:57.914Z,0.00
2018-12-15T01:03:57.905Z,0.00
2018-12-15T01:04:57.889Z,0.00
2018-12-15T01:05:57.871Z,0.00
2018-12-15T01:06:57.857Z,0.00
2018-12-15T01:07:57.849Z,0.00
2018-12-15T01:08:57.832Z,0.00
2018-12-15T01:09:57.821Z,0.00
2018-12-15T01:10:57.808Z,0.00
2018-12-15T01:11:57.788Z,0.00
2018-12-15T01:12:57.772Z,0.00
2018-12-15T01:13:57.760Z,0.00
2018-12-15T01:14:57.744Z,0.00
2018-12-15T01:15:57.738Z,0.00
2018-12-15T01:16:57.720Z,0.00
2018-12-15T01:17:57.707Z,0.00
2018-12-15T01:18:57.694Z,0.00
2018-12-15T01:19:57.674Z,0.00
2018-12-15T01:20:57.660Z,0.00
2018-12-15T01:21:57.650Z,0.00
2018-12-15T01:22:57.637Z,0.00
2018-12-15T01:23:57.621Z,0.00
2018-12-15T01:24:57.603Z,0.00
2018-12-15T01:25:57.589Z,0.00
2018-12-15T01:26:57.575Z,0.00
2018-12-15T01:27:57.569Z,0.00
2018-12-15T01:28:57.551Z,0.00
2018-12-15T01:29:57.537Z,0.00
2018-12-15T01:30:57.523Z,0.00
2018-12-15T01:31:57.505Z,0.00
2018-12-15T01:32:57.490Z,0.00
2018-12-15T01:33:57.477Z,0.00
2018-12-15T01:34:57.464Z,0.00
2018-12-15T01:35:57.455Z,0.00
2018-12-15T01:36:57.439Z,0.00
2018-12-15T01:37:57.420Z,0.00
2018-12-15T01:38:57.410Z,0.00
2018-12-15T01:39:57.398Z,0.00
2018-12-15T01:40:57.389Z,0.00
2018-12-15T01:41:57.370Z,0.00
2018-12-15T01:42:57.356Z,0.00
2018-12-15T01:43:57.336Z,0.00
2018-12-15T01:44:57.321Z,0.00
2018-12-15T01:45:57.308Z,0.00
2018-12-15T01:46:57.293Z,0.00
2018-12-15T01:47:57.284Z,0.00
2018-12-15T01:48:57.269Z,0.00
2018-12-15T01:49:57.255Z,0.00
2018-12-15T01:50:57.242Z,0.00
2018-12-15T01:51:57.223Z,0.00
2018-12-15T01:52:57.208Z,0.00
2018-12-15T01:53:57.199Z,0.00
2018-12-15T01:54:57.184Z,0.00
2018-12-15T01:55:57.166Z,0.00
2018-12-15T01:56:57.152Z,0.00
2018-12-15T01:57:57.143Z,0.00
2018-12-15T01:58:57.123Z,0.00
2018-12-15T01:59:57.191Z,0.00
2018-12-15T02:00:57.100Z,0.00
2018-12-15T02:01:57.086Z,0.00
2018-12-15T02:02:57.071Z,0.00
2018-12-15T02:03:57.052Z,0.00
2018-12-15T02:04:57.039Z,0.00
2018-12-15T02:05:57.024Z,0.00
2018-12-15T02:06:57.009Z,0.00
2018-12-15T02:07:57.002Z,0.00
2018-12-15T02:08:56.985Z,0.00
2018-12-15T02:09:56.971Z,0.00
2018-12-15T02:10:56.953Z,0.00
2018-12-15T02:11:56.943Z,0.00
2018-12-15T02:12:56.930Z,0.00
2018-12-15T02:13:56.916Z,0.00
2018-12-15T02:14:56.902Z,0.00
2018-12-15T02:15:56.886Z,0.00
2018-12-15T02:16:56.868Z,0.00
2018-12-15T02:17:56.854Z,0.00
2018-12-15T02:18:56.840Z,0.00
2018-12-15T02:19:56.833Z,0.00
2018-12-15T02:20:56.817Z,0.00
2018-12-15T02:21:56.803Z,0.00
2018-12-15T02:22:56.788Z,0.00
2018-12-15T02:23:56.769Z,0.00
2018-12-15T02:24:56.758Z,0.00
2018-12-15T02:25:56.745Z,0.00
2018-12-15T02:26:56.731Z,0.00
2018-12-15T02:27:56.713Z,0.00
2018-12-15T02:28:56.698Z,0.00
2018-12-15T02:29:56.685Z,0.00
2018-12-15T02:30:56.671Z,0.00
2018-12-15T02:31:56.665Z,0.00
2018-12-15T02:32:56.651Z,0.00
2018-12-15T02:33:56.640Z,0.00
2018-12-15T02:34:56.621Z,0.00
2018-12-15T02:35:56.601Z,0.00
2018-12-15T02:36:56.586Z,0.00
2018-12-15T02:37:56.572Z,0.00
2018-12-15T02:38:56.558Z,0.00
2018-12-15T02:39:56.547Z,0.00
2018-12-15T02:40:56.533Z,0.00
2018-12-15T02:41:56.516Z,0.00
2018-12-15T02:42:56.501Z,0.00
2018-12-15T02:43:56.491Z,0.00
2018-12-15T02:44:56.476Z,0.00
2018-12-15T02:45:56.464Z,0.00
2018-12-15T02:46:56.449Z,0.00
2018-12-15T02:47:56.433Z,0.00
2018-12-15T02:48:56.417Z,0.00
2018-12-15T02:49:56.403Z,0.00
2018-12-15T02:50:56.389Z,0.00
2018-12-15T02:51:56.381Z,0.00
2018-12-15T02:52:56.364Z,0.00
2018-12-15T02:53:56.351Z,0.00
2018-12-15T02:54:56.336Z,0.00
2018-12-15T02:55:56.339Z,0.00
2018-12-15T02:56:56.303Z,0.00
2018-12-15T02:57:56.295Z,0.00
2018-12-15T02:58:56.279Z,0.00
2018-12-15T02:59:56.261Z,0.00
2018-12-15T03:00:56.246Z,0.00
2018-12-15T03:01:56.233Z,0.00
2018-12-15T03:02:56.221Z,0.00
2018-12-15T03:03:56.209Z,0.00
2018-12-15T03:04:56.206Z,0.00
2018-12-15T03:05:56.181Z,0.00
2018-12-15T03:06:56.167Z,0.00
2018-12-15T03:07:56.148Z,0.00
2018-12-15T03:08:56.136Z,0.00
2018-12-15T03:09:56.120Z,0.00
2018-12-15T03:10:56.106Z,0.00
2018-12-15T03:11:56.099Z,0.00
2018-12-15T03:12:56.082Z,0.00
2018-12-15T03:13:56.062Z,0.00
2018-12-15T03:14:56.049Z,0.00
2018-12-15T03:15:56.045Z,0.00
2018-12-15T03:16:56.025Z,0.00
2018-12-15T03:17:56.011Z,0.00
2018-12-15T03:18:55.998Z,0.00
2018-12-15T03:19:55.980Z,0.00
2018-12-15T03:20:55.966Z,0.00
2018-12-15T03:21:55.964Z,0.00
2018-12-15T03:22:55.935Z,0.00
2018-12-15T03:23:55.927Z,0.00
2018-12-15T03:24:55.912Z,0.00
2018-12-15T03:25:55.899Z,0.00
2018-12-15T03:26:55.946Z,0.00
2018-12-15T03:27:55.873Z,0.00
2018-12-15T03:28:55.851Z,0.00
2018-12-15T03:29:55.842Z,0.00
2018-12-15T03:30:55.828Z,0.00
2018-12-15T03:31:55.811Z,0.00
2018-12-15T03:32:55.796Z,0.00
2018-12-15T03:33:55.857Z,0.00
2018-12-15T03:34:55.768Z,0.00
2018-12-15T03:35:55.756Z,0.00
2018-12-15T03:36:55.743Z,0.00
2018-12-15T03:37:55.728Z,0.00
2018-12-15T03:38:55.714Z,0.00
2018-12-15T03:39:55.698Z,0.00
2018-12-15T03:40:55.683Z,0.00
2018-12-15T03:41:55.672Z,0.00
2018-12-15T03:42:55.657Z,0.00
2018-12-15T03:43:55.645Z,0.00
2018-12-15T03:44:55.632Z,0.00
2018-12-15T03:45:55.611Z,0.00
2018-12-15T03:46:55.597Z,0.00
2018-12-15T03:47:56.382Z,0.00
2018-12-15T03:48:55.575Z,0.00
2018-12-15T03:49:55.559Z,0.00
2018-12-15T03:50:55.548Z,0.00
2018-12-15T03:51:55.527Z,0.00
2018-12-15T03:52:55.513Z,0.00
2018-12-15T03:53:55.499Z,0.00
2018-12-15T03:54:55.485Z,0.00
2018-12-15T03:55:55.478Z,0.00
2018-12-15T03:56:55.460Z,0.00
2018-12-15T03:57:55.449Z,0.00
2018-12-15T03:58:55.436Z,0.00
2018-12-15T03:59:55.419Z,0.00
2018-12-15T04:00:55.401Z,0.00
2018-12-15T04:01:55.392Z,0.00
2018-12-15T04:02:55.377Z,0.00
2018-12-15T04:03:55.359Z,0.00
2018-12-15T04:04:55.346Z,0.00
2018-12-15T04:05:55.332Z,0.00
2018-12-15T04:06:55.317Z,0.00
2018-12-15T04:07:55.309Z,0.00
2018-12-15T04:08:55.293Z,0.00
2018-12-15T04:09:55.275Z,0.00
2018-12-15T04:10:55.261Z,0.00
2018-12-15T04:11:55.255Z,0.00
2018-12-15T04:12:55.247Z,0.00
2018-12-15T04:13:55.222Z,0.00
2018-12-15T04:14:55.214Z,0.00
2018-12-15T04:15:55.191Z,0.00
2018-12-15T04:16:55.179Z,0.00
2018-12-15T04:17:55.167Z,0.00
2018-12-15T04:18:55.153Z,0.00
2018-12-15T04:19:55.135Z,0.00
2018-12-15T04:20:55.122Z,0.00
2018-12-15T04:21:55.108Z,0.00
2018-12-15T04:22:55.094Z,0.00
2018-12-15T04:23:55.089Z,0.00
2018-12-15T04:24:55.071Z,0.00
2018-12-15T04:25:55.055Z,0.00
2018-12-15T04:26:55.044Z,0.00
2018-12-15T04:27:55.026Z,0.00
2018-12-15T04:28:55.011Z,0.00
2018-12-15T04:29:54.997Z,0.00
2018-12-15T04:30:54.981Z,0.00
2018-12-15T04:31:54.973Z,0.00
2018-12-15T04:32:54.963Z,0.00
2018-12-15T04:33:54.941Z,0.00
2018-12-15T04:34:54.950Z,0.00
2018-12-15T04:35:54.915Z,0.00
2018-12-15T04:36:54.903Z,0.00
2018-12-15T04:37:54.890Z,0.00
2018-12-15T04:38:54.874Z,0.00
2018-12-15T04:39:54.859Z,0.00
2018-12-15T04:40:54.839Z,0.00
2018-12-15T04:41:54.829Z,0.00
2018-12-15T04:42:54.812Z,0.00
2018-12-15T04:43:54.803Z,0.00
2018-12-15T04:44:54.790Z,0.00
2018-12-15T04:45:54.776Z,0.00
2018-12-15T04:46:54.761Z,0.00
2018-12-15T04:47:54.744Z,0.00
2018-12-15T04:48:54.728Z,0.00
2018-12-15T04:49:54.719Z,0.00
2018-12-15T04:50:54.706Z,0.00
2018-12-15T04:51:54.749Z,0.00
2018-12-15T04:52:54.683Z,0.00
2018-12-15T04:53:54.662Z,0.00
2018-12-15T04:54:54.657Z,0.00
2018-12-15T04:55:54.635Z,0.00
2018-12-15T04:56:54.638Z,0.00
2018-12-15T04:57:54.608Z,0.00
2018-12-15T04:58:54.599Z,0.00
2018-12-15T04:59:54.574Z,0.00
2018-12-15T05:00:54.564Z,0.00
2018-12-15T05:01:54.545Z,0.00
2018-12-15T05:02:54.535Z,0.00
2018-12-15T05:03:54.521Z,0.00
2018-12-15T05:04:54.508Z,0.00
2018-12-15T05:05:54.489Z,0.00
2018-12-15T05:06:54.478Z,0.00
2018-12-15T05:07:54.465Z,0.00
2018-12-15T05:08:54.451Z,0.00
2018-12-15T05:09:54.439Z,0.00
2018-12-15T05:10:54.426Z,0.00
2018-12-15T05:11:54.406Z,0.00
2018-12-15T05:12:54.391Z,0.00
2018-12-15T05:13:54.377Z,0.00
2018-12-15T05:14:54.363Z,0.00
2018-12-15T05:15:54.353Z,0.00
2018-12-15T05:16:54.342Z,0.00
2018-12-15T05:17:54.326Z,0.00
2018-12-15T05:18:54.314Z,0.00
2018-12-15T05:19:54.294Z,0.00
2018-12-15T05:20:54.283Z,0.00
2018-12-15T05:21:54.269Z,0.00
2018-12-15T05:22:54.256Z,0.00
2018-12-15T05:23:54.237Z,0.00
2018-12-15T05:24:54.222Z,0.00
2018-12-15T05:25:54.208Z,0.00
2018-12-15T05:26:54.194Z,0.00
2018-12-15T05:27:54.184Z,0.00
2018-12-15T05:28:54.172Z,0.00
2018-12-15T05:29:54.156Z,0.00
2018-12-15T05:30:54.143Z,0.00
2018-12-15T05:31:54.124Z,0.00
2018-12-15T05:32:54.109Z,0.00
2018-12-15T05:33:54.098Z,0.00
2018-12-15T05:34:54.081Z,0.00
2018-12-15T05:35:54.073Z,0.00
2018-12-15T05:36:54.059Z,0.00
2018-12-15T05:37:54.039Z,0.00
2018-12-15T05:38:54.026Z,0.00
2018-12-15T05:39:54.019Z,0.00
2018-12-15T05:40:54.001Z,0.00
2018-12-15T05:41:53.989Z,0.00
2018-12-15T05:42:53.973Z,0.00
2018-12-15T05:43:53.955Z,0.00
2018-12-15T05:44:53.939Z,0.00
2018-12-15T05:45:53.926Z,0.00
2018-12-15T05:46:53.914Z,0.00
2018-12-15T05:47:53.901Z,0.00
2018-12-15T05:48:53.887Z,0.00
2018-12-15T05:49:53.878Z,0.00
2018-12-15T05:50:53.860Z,0.00
2018-12-15T05:51:53.841Z,0.00
2018-12-15T05:52:53.826Z,0.00
2018-12-15T05:53:53.818Z,0.00
2018-12-15T05:54:53.803Z,0.00
2018-12-15T05:55:53.784Z,0.00
2018-12-15T05:56:53.776Z,0.00
2018-12-15T05:57:53.757Z,0.00
2018-12-15T05:58:53.742Z,0.00
2018-12-15T05:59:53.731Z,0.00
2018-12-15T06:00:53.716Z,0.00
2018-12-15T06:01:53.707Z,0.00
2018-12-15T06:02:53.689Z,0.00
2018-12-15T06:03:53.675Z,0.00
2018-12-15T06:04:53.656Z,0.00
2018-12-15T06:05:53.642Z,0.00
2018-12-15T06:06:53.628Z,0.00
2018-12-15T06:07:53.619Z,0.00
2018-12-15T06:08:53.605Z,0.00
2018-12-15T06:09:53.586Z,0.00
2018-12-15T06:10:53.572Z,0.00
2018-12-15T06:11:53.562Z,0.00
2018-12-15T06:12:53.548Z,0.00
2018-12-15T06:13:53.534Z,0.00
2018-12-15T06:14:53.519Z,0.00
2018-12-15T06:15:53.503Z,0.00
2018-12-15T06:16:53.488Z,0.00
2018-12-15T06:17:53.473Z,0.00
2018-12-15T06:18:53.458Z,0.00
2018-12-15T06:19:53.448Z,0.00
2018-12-15T06:20:53.435Z,0.00
2018-12-15T06:21:53.419Z,0.00
2018-12-15T06:22:53.405Z,0.00
2018-12-15T06:23:53.389Z,0.00
2018-12-15T06:24:53.373Z,0.00
2018-12-15T06:25:53.364Z,0.00
2018-12-15T06:26:53.349Z,0.00
2018-12-15T06:27:53.332Z,0.00
2018-12-15T06:28:53.316Z,0.00
2018-12-15T06:29:53.307Z,0.00
2018-12-15T06:30:53.288Z,0.00
2018-12-15T06:31:53.280Z,0.00
2018-12-15T06:32:53.264Z,0.00
2018-12-15T06:33:53.250Z,0.00
2018-12-15T06:34:53.237Z,0.00
2018-12-15T06:35:53.218Z,0.00
2018-12-15T06:36:53.203Z,0.00
2018-12-15T06:37:53.189Z,0.00
2018-12-15T06:38:53.175Z,0.00
2018-12-15T06:39:53.165Z,0.00
2018-12-15T06:40:53.151Z,0.00
2018-12-15T06:41:53.135Z,0.00
2018-12-15T06:42:53.118Z,0.00
2018-12-15T06:43:53.111Z,0.00
2018-12-15T06:44:53.093Z,0.00
2018-12-15T06:45:53.081Z,0.00
2018-12-15T06:46:53.069Z,0.00
2018-12-15T06:47:53.050Z,0.00
2018-12-15T06:48:53.034Z,0.00
2018-12-15T06:49:53.019Z,0.00
2018-12-15T06:50:53.006Z,0.00
2018-12-15T06:51:52.997Z,0.00
2018-12-15T06:52:52.981Z,0.00
2018-12-15T06:53:52.967Z,0.00
2018-12-15T06:54:52.953Z,0.00
2018-12-15T06:55:52.946Z,0.00
2018-12-15T06:56:52.920Z,0.00
2018-12-15T06:57:52.915Z,0.00
2018-12-15T06:58:52.900Z,0.00
2018-12-15T06:59:52.878Z,0.00
2018-12-15T07:00:52.865Z,4.00
2018-12-15T07:01:52.851Z,0.00
2018-12-15T07:02:52.837Z,0.00
2018-12-15T07:03:52.827Z,4.00
2018-12-15T07:04:52.812Z,4.00
2018-12-15T07:05:52.802Z,0.00
2018-12-15T07:06:52.785Z,0.00
2018-12-15T07:07:52.766Z,4.00
2018-12-15T07:08:52.758Z,4.00
2018-12-15T07:09:52.737Z,4.00
2018-12-15T07:10:52.725Z,8.00
2018-12-15T07:11:52.714Z,4.00
2018-12-15T07:12:52.700Z,8.00
2018-12-15T07:13:52.683Z,8.00
2018-12-15T07:14:52.669Z,12.00
2018-12-15T07:15:52.658Z,8.00
2018-12-15T07:16:52.644Z,12.00
2018-12-15T07:17:52.630Z,12.00
2018-12-15T07:18:52.617Z,12.00
2018-12-15T07:19:52.598Z,16.00
2018-12-15T07:20:52.583Z,20.00
2018-12-15T07:21:52.569Z,20.00
2018-12-15T07:22:52.557Z,24.00
2018-12-15T07:23:52.546Z,28.00
2018-12-15T07:24:52.532Z,28.00
2018-12-15T07:25:52.519Z,32.00
2018-12-15T07:26:52.506Z,40.00
2018-12-15T07:27:52.486Z,44.00
2018-12-15T07:28:52.473Z,48.00
2018-12-15T07:29:52.463Z,52.00
2018-12-15T07:30:52.456Z,56.00
2018-12-15T07:31:52.430Z,60.00
2018-12-15T07:32:52.416Z,68.00
2018-12-15T07:33:52.401Z,72.00
2018-12-15T07:34:52.387Z,76.00
2018-12-15T07:35:52.377Z,80.00
2018-12-15T07:36:52.404Z,84.00
2018-12-15T07:37:52.349Z,88.00
2018-12-15T07:38:52.335Z,88.00
2018-12-15T07:39:52.318Z,92.00
2018-12-15T07:40:52.304Z,100.00
2018-12-15T07:41:52.288Z,104.00
2018-12-15T07:42:52.275Z,112.00
2018-12-15T07:43:52.266Z,120.00
2018-12-15T07:44:52.251Z,128.00
2018-12-15T07:45:52.231Z,140.00
2018-12-15T07:46:52.218Z,144.00
2018-12-15T07:47:52.209Z,148.00
2018-12-15T07:48:52.194Z,160.00
2018-12-15T07:49:52.180Z,164.00
2018-12-15T07:50:52.165Z,176.00
2018-12-15T07:51:52.147Z,184.00
2018-12-15T07:52:52.132Z,188.00
2018-12-15T07:53:52.118Z,196.00
2018-12-15T07:54:52.108Z,204.00
2018-12-15T07:55:52.095Z,208.00
2018-12-15T07:56:52.081Z,212.00
2018-12-15T07:57:52.067Z,220.00
2018-12-15T07:58:52.053Z,232.00
2018-12-15T07:59:52.035Z,236.00
2018-12-15T08:00:52.038Z,240.00
2018-12-15T08:01:52.009Z,244.00
2018-12-15T08:02:51.996Z,248.00
2018-12-15T08:03:51.978Z,248.00
2018-12-15T08:04:51.962Z,248.00
2018-12-15T08:05:51.948Z,256.00
2018-12-15T08:06:51.938Z,264.00
2018-12-15T08:07:51.926Z,280.00
2018-12-15T08:08:51.909Z,288.00
2018-12-15T08:09:51.896Z,296.00
2018-12-15T08:10:51.882Z,300.00
2018-12-15T08:11:51.863Z,308.00
2018-12-15T08:12:51.849Z,320.00
2018-12-15T08:13:51.836Z,332.00
2018-12-15T08:14:51.871Z,340.00
2018-12-15T08:15:51.813Z,348.00
2018-12-15T08:16:51.800Z,352.00
2018-12-15T08:17:51.783Z,360.00
2018-12-15T08:18:57.882Z,368.00
2018-12-15T08:19:51.759Z,380.00
2018-12-15T08:20:51.741Z,396.00
2018-12-15T08:21:51.729Z,404.00
2018-12-15T08:22:51.716Z,420.00
2018-12-15T08:23:51.694Z,432.00
2018-12-15T08:24:51.685Z,444.00
2018-12-15T08:25:51.668Z,448.00
2018-12-15T08:26:51.652Z,448.00
2018-12-15T08:27:51.642Z,476.00
2018-12-15T08:28:51.628Z,492.00
2018-12-15T08:29:51.616Z,484.00
2018-12-15T08:30:51.603Z,484.00
2018-12-15T08:31:51.583Z,524.00
2018-12-15T08:32:51.568Z,528.00
2018-12-15T08:33:51.559Z,512.00
2018-12-15T08:34:51.544Z,500.00
2018-12-15T08:35:51.526Z,528.00
2018-12-15T08:36:51.512Z,556.00
2018-12-15T08:37:51.497Z,556.00
2018-12-15T08:38:51.483Z,548.00
2018-12-15T08:39:51.474Z,536.00
2018-12-15T08:40:51.460Z,548.00
2018-12-15T08:41:51.464Z,560.00
2018-12-15T08:42:51.432Z,572.00
2018-12-15T08:43:51.438Z,556.00
2018-12-15T08:44:51.402Z,556.00
2018-12-15T08:45:51.387Z,568.00
2018-12-15T08:46:51.377Z,572.00
2018-12-15T08:47:51.364Z,568.00
2018-12-15T08:48:51.348Z,564.00
2018-12-15T08:49:51.330Z,580.00
2018-12-15T08:50:51.318Z,604.00
2018-12-15T08:51:51.308Z,600.00
2018-12-15T08:52:51.293Z,592.00
2018-12-15T08:53:51.278Z,600.00
2018-12-15T08:54:51.265Z,616.00
2018-12-15T08:55:51.247Z,624.00
2018-12-15T08:56:51.233Z,672.00
2018-12-15T08:57:51.218Z,708.00
2018-12-15T08:58:51.205Z,748.00
2018-12-15T08:59:51.196Z,776.00
2018-12-15T09:00:51.181Z,776.00
2018-12-15T09:01:51.168Z,764.00
2018-12-15T09:02:51.154Z,788.00
2018-12-15T09:03:51.135Z,792.00
2018-12-15T09:04:51.120Z,780.00
2018-12-15T09:05:51.112Z,796.00
2018-12-15T09:06:51.099Z,820.00
2018-12-15T09:07:51.080Z,820.00
2018-12-15T09:08:51.065Z,808.00
2018-12-15T09:09:51.053Z,816.00
2018-12-15T09:10:51.036Z,816.00
2018-12-15T09:11:51.027Z,808.00
2018-12-15T09:12:51.013Z,820.00
2018-12-15T09:13:50.998Z,872.00
2018-12-15T09:14:50.984Z,880.00
2018-12-15T09:15:50.966Z,872.00
2018-12-15T09:16:50.951Z,888.00
2018-12-15T09:17:50.939Z,936.00
2018-12-15T09:18:50.924Z,980.00
2018-12-15T09:19:50.915Z,996.00
2018-12-15T09:20:50.901Z,1036.00
2018-12-15T09:21:50.883Z,1072.00
2018-12-15T09:22:50.868Z,1076.00
2018-12-15T09:23:50.862Z,1064.00
2018-12-15T09:24:50.845Z,1068.00
2018-12-15T09:25:50.831Z,1060.00
2018-12-15T09:26:50.817Z,1052.00
2018-12-15T09:27:50.799Z,1012.00
2018-12-15T09:28:50.784Z,1016.00
2018-12-15T09:29:50.770Z,1064.00
2018-12-15T09:30:50.758Z,1060.00
2018-12-15T09:31:50.748Z,1088.00
2018-12-15T09:32:50.733Z,1120.00
2018-12-15T09:33:50.720Z,1128.00
2018-12-15T09:34:50.705Z,1124.00
2018-12-15T09:35:50.689Z,1120.00
2018-12-15T09:36:50.673Z,1172.00
2018-12-15T09:37:50.664Z,1240.00
2018-12-15T09:38:50.652Z,1292.00
2018-12-15T09:39:50.633Z,1332.00
2018-12-15T09:40:50.619Z,1408.00
2018-12-15T09:41:50.605Z,1388.00
2018-12-15T09:42:50.591Z,1392.00
2018-12-15T09:43:50.582Z,1420.00
2018-12-15T09:44:50.568Z,1412.00
2018-12-15T09:45:50.553Z,1380.00
2018-12-15T09:46:50.542Z,1460.00
2018-12-15T09:47:50.523Z,1516.00
2018-12-15T09:48:50.509Z,1488.00
2018-12-15T09:49:50.494Z,1508.00
2018-12-15T09:50:50.482Z,1544.00
2018-12-15T09:51:50.473Z,1580.00
2018-12-15T09:52:50.457Z,1600.00
2018-12-15T09:53:50.438Z,1572.00
2018-12-15T09:54:50.425Z,1648.00
2018-12-15T09:55:50.418Z,1628.00
2018-12-15T09:56:50.402Z,1572.00
2018-12-15T09:57:50.389Z,1580.00
2018-12-15T09:58:50.375Z,1652.00
2018-12-15T09:59:50.356Z,1752.00
2018-12-15T10:00:50.343Z,1776.00
2018-12-15T10:01:50.331Z,1680.00
2018-12-15T10:02:50.315Z,1652.00
2018-12-15T10:03:50.308Z,1580.00
2018-12-15T10:04:50.292Z,1564.00
2018-12-15T10:05:50.277Z,1552.00
2018-12-15T10:06:51.068Z,1560.00
2018-12-15T10:07:50.246Z,1520.00
2018-12-15T10:08:50.232Z,1560.00
2018-12-15T10:09:50.223Z,1600.00
2018-12-15T10:10:50.208Z,1588.00
2018-12-15T10:11:50.190Z,1548.00
2018-12-15T10:12:50.176Z,1564.00
2018-12-15T10:13:50.162Z,1576.00
2018-12-15T10:14:50.150Z,1648.00
2018-12-15T10:15:50.141Z,1644.00
2018-12-15T10:16:50.126Z,1600.00
2018-12-15T10:17:50.112Z,1636.00
2018-12-15T10:18:50.100Z,1660.00
2018-12-15T10:19:50.084Z,1708.00
2018-12-15T10:20:50.067Z,1716.00
2018-12-15T10:21:50.051Z,1656.00
2018-12-15T10:22:50.039Z,1652.00
2018-12-15T10:23:50.029Z,1624.00
2018-12-15T10:24:50.014Z,1648.00
2018-12-15T10:25:49.997Z,1752.00
2018-12-15T10:26:49.984Z,1720.00
2018-12-15T10:27:49.974Z,1692.00
2018-12-15T10:28:49.959Z,1692.00
2018-12-15T10:29:49.946Z,1668.00
2018-12-15T10:30:49.935Z,1680.00
2018-12-15T10:31:49.916Z,1628.00
2018-12-15T10:32:49.900Z,1528.00
2018-12-15T10:33:49.889Z,1532.00
2018-12-15T10:34:49.877Z,1536.00
2018-12-15T10:35:49.864Z,1568.00
2018-12-15T10:36:49.850Z,1540.00
2018-12-15T10:37:49.838Z,1536.00
2018-12-15T10:38:49.828Z,1656.00
2018-12-15T10:39:49.808Z,1724.00
2018-12-15T10:40:49.792Z,1780.00
2018-12-15T10:41:49.782Z,1732.00
2018-12-15T10:42:49.768Z,1576.00
2018-12-15T10:43:49.751Z,1556.00
2018-12-15T10:44:49.736Z,1504.00
2018-12-15T10:45:49.726Z,1544.00
2018-12-15T10:46:49.711Z,1660.00
2018-12-15T10:47:49.700Z,1824.00
2018-12-15T10:48:49.686Z,1804.00
2018-12-15T10:49:49.673Z,1728.00
2018-12-15T10:50:49.659Z,1668.00
2018-12-15T10:51:49.644Z,1596.00
2018-12-15T10:52:49.627Z,1584.00
2018-12-15T10:53:49.614Z,1576.00
2018-12-15T10:54:49.601Z,1596.00
2018-12-15T10:55:49.593Z,1636.00
2018-12-15T10:56:49.579Z,1700.00
2018-12-15T10:57:49.560Z,1764.00
2018-12-15T10:58:49.605Z,1780.00
2018-12-15T10:59:49.539Z,1808.00
2018-12-15T11:00:49.524Z,1780.00
2018-12-15T11:01:49.509Z,1760.00
2018-12-15T11:02:49.497Z,1748.00
2018-12-15T11:03:49.478Z,1800.00
2018-12-15T11:04:49.464Z,1752.00
2018-12-15T11:05:49.456Z,1708.00
2018-12-15T11:06:49.441Z,1664.00
2018-12-15T11:07:49.434Z,1664.00
2018-12-15T11:08:49.415Z,1680.00
2018-12-15T11:09:49.402Z,1732.00
2018-12-15T11:10:49.394Z,1688.00
2018-12-15T11:11:49.370Z,1744.00
2018-12-15T11:12:49.356Z,1772.00
2018-12-15T11:13:49.348Z,1784.00
2018-12-15T11:14:49.339Z,1904.00
2018-12-15T11:15:49.315Z,1956.00
2018-12-15T11:16:49.301Z,2044.00
2018-12-15T11:17:49.289Z,2048.00
2018-12-15T11:18:49.274Z,1980.00
2018-12-15T11:19:49.265Z,2020.00
2018-12-15T11:20:49.251Z,1952.00
2018-12-15T11:21:49.237Z,1912.00
2018-12-15T11:22:49.225Z,1956.00
2018-12-15T11:23:49.207Z,2068.00
2018-12-15T11:24:49.192Z,1980.00
2018-12-15T11:25:49.179Z,2008.00
2018-12-15T11:26:49.166Z,2084.00
2018-12-15T11:27:49.158Z,2020.00
2018-12-15T11:28:49.143Z,2164.00
2018-12-15T11:29:49.126Z,2188.00
2018-12-15T11:30:49.111Z,2180.00
2018-12-15T11:31:49.104Z,2116.00
2018-12-15T11:32:49.089Z,2120.00
2018-12-15T11:33:49.075Z,2140.00
2018-12-15T11:34:49.061Z,2140.00
2018-12-15T11:35:49.043Z,2004.00
2018-12-15T11:36:49.028Z,2104.00
2018-12-15T11:37:49.016Z,2072.00
2018-12-15T11:38:49.005Z,1980.00
2018-12-15T11:39:48.992Z,2036.00
2018-12-15T11:40:48.978Z,2160.00
2018-12-15T11:41:48.964Z,1644.00
2018-12-15T11:42:48.954Z,1812.00
2018-12-15T11:43:48.933Z,1980.00
2018-12-15T11:44:48.919Z,2108.00
2018-12-15T11:45:48.910Z,2088.00
2018-12-15T11:46:48.896Z,2124.00
2018-12-15T11:47:48.879Z,2128.00
2018-12-15T11:48:48.865Z,2184.00
2018-12-15T11:49:48.852Z,2188.00
2018-12-15T11:50:48.840Z,2188.00
2018-12-15T11:51:48.830Z,2160.00
2018-12-15T11:52:48.819Z,2236.00
2018-12-15T11:53:48.807Z,2200.00
2018-12-15T11:54:48.788Z,2160.00
2018-12-15T11:55:48.770Z,2224.00
2018-12-15T11:56:49.130Z,2260.00
2018-12-15T11:57:48.741Z,2280.00
2018-12-15T11:58:48.729Z,2240.00
2018-12-15T11:59:48.719Z,2340.00
2018-12-15T12:00:48.705Z,2360.00
2018-12-15T12:01:48.685Z,2140.00
2018-12-15T12:02:48.676Z,2228.00
2018-12-15T12:03:48.663Z,2452.00
2018-12-15T12:04:48.649Z,2688.00
2018-12-15T12:05:48.636Z,3148.00
2018-12-15T12:06:48.622Z,3216.00
2018-12-15T12:07:48.604Z,3356.00
2018-12-15T12:08:48.589Z,3320.00
2018-12-15T12:09:48.574Z,3380.00
2018-12-15T12:10:48.562Z,3348.00
2018-12-15T12:11:48.554Z,3308.00
2018-12-15T12:12:48.539Z,3184.00
2018-12-15T12:13:48.523Z,2952.00
2018-12-15T12:14:48.511Z,2932.00
2018-12-15T12:15:48.495Z,2788.00
2018-12-15T12:16:48.478Z,2788.00
2018-12-15T12:17:48.470Z,2880.00
2018-12-15T12:18:48.455Z,2948.00
2018-12-15T12:19:50.273Z,2948.00
2018-12-15T12:20:48.424Z,2828.00
2018-12-15T12:21:48.412Z,2672.00
2018-12-15T12:22:48.397Z,2676.00
2018-12-15T12:23:48.387Z,2576.00
2018-12-15T12:24:48.373Z,2536.00
2018-12-15T12:25:48.361Z,2640.00
2018-12-15T12:26:48.347Z,2492.00
2018-12-15T12:27:48.329Z,2356.00
2018-12-15T12:28:48.313Z,2580.00
2018-12-15T12:29:48.300Z,2876.00
2018-12-15T12:30:48.289Z,2768.00
2018-12-15T12:31:48.278Z,2620.00
2018-12-15T12:32:48.263Z,2672.00
2018-12-15T12:33:48.245Z,2748.00
2018-12-15T12:34:48.231Z,2372.00
2018-12-15T12:35:48.224Z,2536.00
2018-12-15T12:36:48.208Z,2636.00
2018-12-15T12:37:48.196Z,2620.00
2018-12-15T12:38:48.182Z,2436.00
2018-12-15T12:39:48.165Z,2668.00
2018-12-15T12:40:48.151Z,2436.00
2018-12-15T12:41:48.136Z,2600.00
2018-12-15T12:42:48.123Z,2472.00
2018-12-15T12:43:48.113Z,2372.00
2018-12-15T12:44:48.098Z,2336.00
2018-12-15T12:45:48.086Z,2072.00
2018-12-15T12:46:48.073Z,1936.00
2018-12-15T12:47:48.054Z,2168.00
2018-12-15T12:48:48.039Z,2148.00
2018-12-15T12:49:48.030Z,2208.00